Time;durP1;ratioP1;P1;durP2;ratioP2;P2;SDS_P1;SDS_P2;PMS_P1;PMS_P2;Temp;Humidity;BMP_temperature;BMP_pressure;BME280_temperature;BME280_humidity;BME280_pressure;Samples;Min_cycle;Max_cycle;Signal;HPM_P1;HPM_P2
2023/09/03 00:01:54;;;;;;;24.50;22.00;;;18.90;99.90;;;;;;5033049;28;20416;-65
2023/09/03 00:04:20;;;;;;;24.00;21.50;;;18.90;99.90;;;;;;5032205;28;20468;-66
2023/09/03 00:06:46;;;;;;;22.40;20.07;;;18.90;99.90;;;;;;5033915;28;20217;-65
2023/09/03 00:09:12;;;;;;;22.43;20.23;;;18.90;99.90;;;;;;5033665;28;20177;-65
2023/09/03 00:11:37;;;;;;;22.50;20.17;;;18.90;99.90;;;;;;5033970;28;20763;-66
2023/09/03 00:14:03;;;;;;;22.03;19.83;;;18.80;99.90;;;;;;5033222;28;20174;-66
2023/09/03 00:16:29;;;;;;;24.70;22.20;;;18.80;99.90;;;;;;5033378;28;20182;-65
2023/09/03 00:18:55;;;;;;;21.40;19.20;;;18.80;99.90;;;;;;5032964;28;20492;-66
2023/09/03 00:21:21;;;;;;;22.30;20.10;;;18.70;99.90;;;;;;5033903;28;20904;-64
2023/09/03 00:23:49;;;;;;;22.60;20.23;;;18.80;99.90;;;;;;5049654;28;20210;-65
2023/09/03 00:26:21;;;;;;;23.23;20.73;;;18.70;99.90;;;;;;5033880;28;20178;-65
2023/09/03 00:28:47;;;;;;;19.93;18.13;;;18.70;99.90;;;;;;5033400;28;20892;-65
2023/09/03 00:31:13;;;;;;;20.97;18.97;;;18.70;99.90;;;;;;5016069;28;20409;-62
2023/09/03 00:33:39;;;;;;;23.03;20.30;;;18.60;99.90;;;;;;5033714;28;20428;-62
2023/09/03 00:36:06;;;;;;;23.37;20.50;;;18.60;99.90;;;;;;5033000;28;20426;-65
2023/09/03 00:38:32;;;;;;;22.50;20.23;;;18.50;99.90;;;;;;5033257;28;20499;-65
2023/09/03 00:40:58;;;;;;;24.70;22.17;;;18.50;99.90;;;;;;5033917;28;20455;-64
2023/09/03 00:43:24;;;;;;;24.37;21.97;;;18.60;99.90;;;;;;5032398;28;20530;-64
2023/09/03 00:45:52;;;;;;;28.90;23.13;;;18.60;99.90;;;;;;5034325;28;20425;-62
2023/09/03 00:48:23;;;;;;;28.60;24.10;;;18.60;99.90;;;;;;5033084;28;20445;-62
2023/09/03 00:50:51;;;;;;;24.23;21.73;;;18.60;99.90;;;;;;5033809;28;20455;-62
2023/09/03 00:53:18;;;;;;;24.20;21.60;;;18.70;99.90;;;;;;5034061;28;20520;-61
2023/09/03 00:55:44;;;;;;;23.23;20.93;;;18.70;99.90;;;;;;5032862;28;20443;-62
2023/09/03 00:58:11;;;;;;;28.13;22.60;;;18.70;99.90;;;;;;5033602;28;20443;-62
2023/09/03 01:00:37;;;;;;;24.57;22.20;;;18.70;99.90;;;;;;5032658;28;20463;-62
2023/09/03 01:03:04;;;;;;;24.50;22.03;;;18.70;99.90;;;;;;5033253;28;20469;-62
2023/09/03 01:05:30;;;;;;;26.90;24.10;;;18.80;99.90;;;;;;5033073;28;20418;-62
2023/09/03 01:07:59;;;;;;;28.60;25.60;;;18.80;99.90;;;;;;5033357;28;20425;-62
2023/09/03 01:10:36;;;;;;;31.80;25.67;;;18.80;99.90;;;;;;5032890;28;20417;-62
2023/09/03 01:13:43;;;;;;;26.30;23.60;;;18.80;99.90;;;;;;5033578;28;20444;-62
2023/09/03 01:16:21;;;;;;;24.73;22.10;;;18.80;99.90;;;;;;5031838;28;20817;-62
2023/09/03 01:18:47;;;;;;;23.87;21.57;;;18.80;99.90;;;;;;5030856;28;20911;-62
2023/09/03 01:21:34;;;;;;;26.00;23.40;;;18.80;99.90;;;;;;5033328;28;20419;-62
2023/09/03 01:24:28;;;;;;;25.80;23.20;;;18.80;99.90;;;;;;5032405;28;20793;-62
2023/09/03 01:27:23;;;;;;;28.63;25.33;;;18.70;99.90;;;;;;5033356;28;20772;-62
2023/09/03 01:29:50;;;;;;;32.90;25.97;;;18.60;99.90;;;;;;5033199;28;20448;-62
2023/09/03 01:32:17;;;;;;;29.53;25.97;;;18.50;99.90;;;;;;5031936;28;20409;-62
2023/09/03 01:34:45;;;;;;;29.87;26.07;;;18.40;99.90;;;;;;5032266;28;20598;-62
2023/09/03 01:37:11;;;;;;;28.50;25.47;;;18.30;99.90;;;;;;5032945;28;20858;-62
2023/09/03 01:39:37;;;;;;;27.70;23.60;;;18.30;99.90;;;;;;5032532;28;20432;-62
2023/09/03 01:42:03;;;;;;;26.40;23.60;;;18.40;99.90;;;;;;5032710;28;20508;-62
2023/09/03 01:44:29;;;;;;;26.50;23.83;;;18.40;99.90;;;;;;5032297;28;20960;-62
2023/09/03 01:47:26;;;;;;;27.30;24.40;;;18.40;99.90;;;;;;5032368;28;20228;-62
2023/09/03 01:50:01;;;;;;;25.50;22.83;;;18.40;99.90;;;;;;5032134;28;20661;-62
2023/09/03 01:52:35;;;;;;;24.90;22.17;;;18.50;99.90;;;;;;5032459;28;20458;-62
2023/09/03 01:55:05;;;;;;;25.53;22.70;;;18.50;99.90;;;;;;5032077;28;20914;-62
2023/09/03 01:57:34;;;;;;;24.07;21.67;;;18.50;99.90;;;;;;5032001;28;20431;-62
2023/09/03 02:00:04;;;;;;;24.23;21.73;;;18.50;99.90;;;;;;5032802;28;20495;-63
2023/09/03 02:02:32;;;;;;;26.27;23.37;;;18.50;99.90;;;;;;5031730;28;20547;-62
2023/09/03 02:04:57;;;;;;;26.50;23.87;;;18.40;99.90;;;;;;5031420;28;20449;-62
2023/09/03 02:07:23;;;;;;;25.67;22.80;;;18.30;99.90;;;;;;5032693;28;20475;-62
2023/09/03 02:09:49;;;;;;;24.70;22.20;;;18.30;99.90;;;;;;5031981;28;20181;-62
2023/09/03 02:12:23;;;;;;;25.67;23.07;;;18.20;99.90;;;;;;5032592;28;20421;-62
2023/09/03 02:14:49;;;;;;;29.73;23.00;;;18.20;99.90;;;;;;5031639;28;20660;-63
2023/09/03 02:17:19;;;;;;;24.43;21.83;;;18.10;99.90;;;;;;5033007;28;20904;-63
2023/09/03 02:19:49;;;;;;;25.10;22.70;;;18.10;99.90;;;;;;5031854;28;20900;-64
2023/09/03 02:22:15;;;;;;;25.83;23.33;;;18.00;99.90;;;;;;5032032;28;20439;-63
2023/09/03 02:24:41;;;;;;;24.50;21.80;;;18.00;99.90;;;;;;5031622;28;20409;-63
2023/09/03 02:27:08;;;;;;;24.80;22.00;;;18.10;99.90;;;;;;5032361;28;20515;-63
2023/09/03 02:29:34;;;;;;;24.27;21.60;;;18.10;99.90;;;;;;5031351;28;20174;-63
2023/09/03 02:32:00;;;;;;;23.33;20.93;;;18.10;99.90;;;;;;5032536;28;20404;-63
2023/09/03 02:34:25;;;;;;;24.63;21.53;;;18.10;99.90;;;;;;5032388;28;20268;-63
2023/09/03 02:36:51;;;;;;;25.90;21.63;;;18.10;99.90;;;;;;5031617;28;20182;-63
2023/09/03 02:39:19;;;;;;;26.70;22.77;;;18.10;99.90;;;;;;5032497;28;20174;-64
2023/09/03 02:41:44;;;;;;;33.67;22.60;;;18.10;99.90;;;;;;5031093;28;20175;-64
2023/09/03 02:44:10;;;;;;;25.23;22.30;;;18.10;99.90;;;;;;5032093;28;20522;-64
2023/09/03 02:46:36;;;;;;;25.17;22.57;;;18.10;99.90;;;;;;5031651;28;20576;-63
2023/09/03 02:49:02;;;;;;;24.20;21.77;;;18.10;99.90;;;;;;5032511;28;20621;-63
2023/09/03 02:51:28;;;;;;;26.40;21.57;;;18.20;99.90;;;;;;5031766;28;20170;-60
2023/09/03 02:53:56;;;;;;;26.03;21.80;;;18.20;99.90;;;;;;5032275;28;20547;-63
2023/09/03 02:56:22;;;;;;;25.53;22.77;;;18.20;99.90;;;;;;5031779;28;20759;-63
2023/09/03 02:58:49;;;;;;;25.30;22.70;;;18.20;99.90;;;;;;5031118;28;20562;-63
2023/09/03 03:01:17;;;;;;;26.17;22.67;;;18.20;99.90;;;;;;5031560;28;20512;-63
2023/09/03 03:03:44;;;;;;;24.40;21.20;;;18.30;99.90;;;;;;5031613;28;20465;-63
2023/09/03 03:06:10;;;;;;;23.73;21.33;;;18.30;99.90;;;;;;5030982;28;20420;-63
2023/09/03 03:08:36;;;;;;;24.77;22.00;;;18.30;99.90;;;;;;5030689;28;20424;-62
2023/09/03 03:11:08;;;;;;;25.70;23.10;;;18.30;99.90;;;;;;5032050;28;20424;-63
2023/09/03 03:13:35;;;;;;;25.53;22.93;;;18.30;99.90;;;;;;5030110;28;20571;-63
2023/09/03 03:16:08;;;;;;;29.10;23.90;;;18.30;99.90;;;;;;5031794;28;20417;-64
2023/09/03 03:18:36;;;;;;;26.50;23.80;;;18.30;99.90;;;;;;5029735;28;20420;-63
2023/09/03 03:21:06;;;;;;;30.80;23.13;;;18.40;99.90;;;;;;5031634;28;20842;-63
2023/09/03 03:23:34;;;;;;;37.13;25.90;;;18.40;99.90;;;;;;5029534;28;20543;-63
2023/09/03 03:26:00;;;;;;;31.63;25.30;;;18.40;99.90;;;;;;5030389;28;20424;-63
2023/09/03 03:28:25;;;;;;;29.10;25.07;;;18.40;99.90;;;;;;5031668;28;20420;-63
2023/09/03 03:30:51;;;;;;;30.77;24.87;;;18.40;99.90;;;;;;5030772;28;20171;-63
2023/09/03 03:33:17;;;;;;;29.07;25.27;;;18.40;99.90;;;;;;5031006;28;20697;-63
2023/09/03 03:35:42;;;;;;;35.00;28.37;;;18.40;99.90;;;;;;5031516;28;20186;-63
2023/09/03 03:38:08;;;;;;;32.70;28.97;;;18.40;99.90;;;;;;5031627;28;20177;-63
2023/09/03 03:40:34;;;;;;;30.50;25.90;;;18.50;99.90;;;;;;5030410;28;20516;-61
2023/09/03 03:43:02;;;;;;;28.10;24.97;;;18.50;99.90;;;;;;5033465;28;20202;-63
2023/09/03 03:45:28;;;;;;;27.67;24.67;;;18.50;99.90;;;;;;5034717;28;20281;-63
2023/09/03 03:47:53;;;;;;;27.43;24.57;;;18.50;99.90;;;;;;5034496;28;20530;-64
2023/09/03 03:50:19;;;;;;;27.93;23.83;;;18.60;99.90;;;;;;5035144;28;20261;-63
2023/09/03 03:52:45;;;;;;;28.30;25.40;;;18.60;99.90;;;;;;5034458;28;20247;-63
2023/09/03 03:55:11;;;;;;;32.50;26.97;;;18.60;99.90;;;;;;5034763;28;20224;-63
2023/09/03 03:57:37;;;;;;;31.20;28.00;;;18.70;99.90;;;;;;5034231;28;20187;-63
2023/09/03 04:00:03;;;;;;;31.30;27.83;;;18.70;99.90;;;;;;5034391;28;20432;-63
2023/09/03 04:02:29;;;;;;;32.57;26.57;;;18.60;99.90;;;;;;5034697;28;20186;-62
2023/09/03 04:04:55;;;;;;;32.13;27.33;;;18.70;99.90;;;;;;5034287;28;20514;-63
2023/09/03 04:07:22;;;;;;;30.77;27.37;;;18.70;99.90;;;;;;5034880;28;20502;-63
2023/09/03 04:09:48;;;;;;;34.63;27.17;;;18.70;99.90;;;;;;5034080;28;20906;-62
2023/09/03 04:12:14;;;;;;;31.77;26.77;;;18.80;99.90;;;;;;5034172;28;20504;-63
2023/09/03 04:14:39;;;;;;;33.33;29.60;;;18.80;99.90;;;;;;5034012;28;20174;-63
2023/09/03 04:17:05;;;;;;;30.27;26.77;;;18.80;99.90;;;;;;5034307;28;20174;-63
2023/09/03 04:19:31;;;;;;;30.47;24.90;;;18.80;99.90;;;;;;5034797;28;20159;-62
2023/09/03 04:21:57;;;;;;;26.77;24.10;;;18.80;99.90;;;;;;5017025;28;20417;-63
2023/09/03 04:24:22;;;;;;;27.77;24.80;;;18.80;99.90;;;;;;5033630;28;20197;-63
2023/09/03 04:26:48;;;;;;;28.67;25.77;;;18.80;99.90;;;;;;5033532;28;20178;-62
2023/09/03 04:29:14;;;;;;;27.33;24.50;;;18.70;99.90;;;;;;5034823;28;20236;-63
2023/09/03 04:31:40;;;;;;;27.77;24.17;;;18.70;99.90;;;;;;5033173;28;20253;-63
2023/09/03 04:34:06;;;;;;;27.23;24.43;;;18.70;99.90;;;;;;5034457;28;20170;-63
2023/09/03 04:36:33;;;;;;;29.23;24.60;;;18.70;99.90;;;;;;5034194;28;20421;-63
2023/09/03 04:38:59;;;;;;;28.20;25.20;;;18.70;99.90;;;;;;5034165;28;20563;-63
2023/09/03 04:41:25;;;;;;;29.50;26.30;;;18.70;99.90;;;;;;5034292;28;20858;-63
2023/09/03 04:44:06;;;;;;;28.70;22.17;;;18.60;99.90;;;;;;5033400;28;20530;-63
2023/09/03 04:46:31;;;;;;;24.57;21.97;;;18.60;99.90;;;;;;5034197;28;20166;-63
2023/09/03 04:48:57;;;;;;;28.10;25.13;;;18.60;99.90;;;;;;5033193;28;20959;-63
2023/09/03 04:51:23;;;;;;;25.27;22.70;;;18.60;99.90;;;;;;5034421;28;20496;-63
2023/09/03 04:53:49;;;;;;;26.80;23.87;;;18.60;99.90;;;;;;5033068;28;20182;-62
2023/09/03 04:56:14;;;;;;;29.87;25.50;;;18.60;99.90;;;;;;5034052;28;20253;-62
2023/09/03 04:58:40;;;;;;;33.03;29.23;;;18.60;99.90;;;;;;5033324;28;20584;-62
2023/09/03 05:01:13;;;;;;;34.97;30.60;;;18.60;99.90;;;;;;5033102;28;20178;-63
2023/09/03 05:03:39;;;;;;;36.27;28.73;;;18.60;99.90;;;;;;5033015;28;20226;-62
2023/09/03 05:06:05;;;;;;;33.97;30.10;;;18.70;99.90;;;;;;5023752;28;20451;-63
2023/09/03 05:08:30;;;;;;;33.70;28.50;;;18.70;99.90;;;;;;5033054;28;20170;-63
2023/09/03 05:10:56;;;;;;;33.33;29.73;;;18.60;99.90;;;;;;5032520;28;20206;-63
2023/09/03 05:13:22;;;;;;;36.50;30.70;;;18.60;99.90;;;;;;5033385;28;20201;-63
2023/09/03 05:15:51;;;;;;;36.60;30.97;;;18.60;99.90;;;;;;5032349;28;20316;-62
2023/09/03 05:18:16;;;;;;;35.90;31.97;;;18.60;99.90;;;;;;5033464;28;20653;-63
2023/09/03 05:20:42;;;;;;;37.73;31.73;;;18.70;99.90;;;;;;5033273;28;20409;-62
2023/09/03 05:23:08;;;;;;;38.13;32.83;;;18.70;99.90;;;;;;5033083;28;20204;-63
2023/09/03 05:25:34;;;;;;;39.50;34.50;;;18.70;99.90;;;;;;5032790;28;20170;-62
2023/09/03 05:27:59;;;;;;;49.73;37.30;;;18.80;99.90;;;;;;5032344;28;20185;-62
2023/09/03 05:30:25;;;;;;;44.83;36.70;;;18.80;99.90;;;;;;5033348;28;20264;-63
2023/09/03 05:32:51;;;;;;;45.30;35.10;;;18.80;99.90;;;;;;5032192;28;20178;-63
2023/09/03 05:35:17;;;;;;;48.57;36.73;;;18.80;99.90;;;;;;5033107;28;20900;-63
2023/09/03 05:37:43;;;;;;;42.17;35.47;;;18.90;99.90;;;;;;5033214;28;20198;-63
2023/09/03 05:40:10;;;;;;;53.27;37.20;;;18.90;99.90;;;;;;5033105;28;20178;-64
2023/09/03 05:42:36;;;;;;;55.00;36.83;;;18.90;99.90;;;;;;5032292;28;20178;-63
2023/09/03 05:45:01;;;;;;;42.83;37.20;;;18.90;99.90;;;;;;5032095;28;20964;-63
2023/09/03 05:47:27;;;;;;;41.77;33.47;;;18.90;99.90;;;;;;5031763;28;20174;-63
2023/09/03 05:49:58;;;;;;;43.23;34.40;;;18.90;99.90;;;;;;5031657;28;20178;-61
2023/09/03 05:52:24;;;;;;;47.03;37.37;;;18.90;99.90;;;;;;5015764;28;20614;-61
2023/09/03 05:54:50;;;;;;;45.40;35.00;;;18.90;99.90;;;;;;5032186;28;20424;-61
2023/09/03 05:57:16;;;;;;;47.40;36.80;;;18.90;99.90;;;;;;5033264;28;20625;-62
2023/09/03 05:59:41;;;;;;;43.23;35.87;;;18.90;99.90;;;;;;5032170;28;20457;-61
2023/09/03 06:02:10;;;;;;;47.43;35.63;;;18.90;99.90;;;;;;5031709;28;20174;-61
2023/09/03 06:04:36;;;;;;;44.50;33.70;;;19.00;99.90;;;;;;5032644;28;20234;-62
2023/09/03 06:07:02;;;;;;;48.00;35.60;;;19.00;99.90;;;;;;5031342;28;20493;-61
2023/09/03 06:09:29;;;;;;;42.93;34.50;;;19.00;99.90;;;;;;5032255;28;20261;-62
2023/09/03 06:11:54;;;;;;;44.60;35.90;;;19.00;99.90;;;;;;5031801;28;20496;-61
2023/09/03 06:14:20;;;;;;;56.03;33.57;;;18.90;99.90;;;;;;5031014;28;20688;-61
2023/09/03 06:16:46;;;;;;;44.40;33.23;;;18.90;99.90;;;;;;5030596;28;20174;-61
2023/09/03 06:19:11;;;;;;;42.40;32.83;;;18.80;99.90;;;;;;5031041;28;20174;-61
2023/09/03 06:21:37;;;;;;;45.60;33.57;;;18.80;99.90;;;;;;5032597;28;20257;-62
2023/09/03 06:24:03;;;;;;;45.10;33.70;;;18.80;99.90;;;;;;5031922;28;20263;-62
2023/09/03 06:26:29;;;;;;;44.33;33.90;;;18.80;99.90;;;;;;5032671;28;20190;-61
2023/09/03 06:28:54;;;;;;;40.00;33.10;;;18.80;99.90;;;;;;5016349;28;20429;-62
2023/09/03 06:31:20;;;;;;;44.47;34.33;;;18.80;99.90;;;;;;5012664;28;20183;-62
2023/09/03 06:33:46;;;;;;;43.50;33.33;;;18.90;99.90;;;;;;5018907;28;20261;-61
2023/09/03 06:36:12;;;;;;;43.93;34.67;;;18.90;99.90;;;;;;5032689;28;20170;-61
2023/09/03 06:38:39;;;;;;;43.47;34.20;;;18.90;99.90;;;;;;5032133;28;20427;-62
2023/09/03 06:41:05;;;;;;;45.10;33.10;;;18.90;99.90;;;;;;5031829;28;20228;-61
2023/09/03 06:43:31;;;;;;;44.40;32.50;;;18.70;99.90;;;;;;5025169;28;20830;-61
2023/09/03 06:45:57;;;;;;;47.20;33.03;;;18.50;99.90;;;;;;5029781;28;20194;-62
2023/09/03 06:48:22;;;;;;;44.47;32.60;;;18.40;99.90;;;;;;5032352;28;20201;-62
2023/09/03 06:50:48;;;;;;;54.67;31.70;;;18.40;99.90;;;;;;5030958;28;21035;-63
2023/09/03 06:53:14;;;;;;;42.33;33.10;;;18.50;99.90;;;;;;5032261;28;20178;-63
2023/09/03 06:55:43;;;;;;;46.53;33.93;;;18.60;99.90;;;;;;5031471;28;20408;-63
2023/09/03 06:58:09;;;;;;;751.30;565.10;;;18.70;99.90;;;;;;5032254;28;20523;-63
2023/09/03 07:00:34;;;;;;;110.73;77.33;;;18.80;99.90;;;;;;5031843;28;20421;-63
2023/09/03 07:03:00;;;;;;;45.13;36.00;;;18.80;99.90;;;;;;5030863;28;20202;-63
2023/09/03 07:05:26;;;;;;;41.80;33.13;;;18.90;99.90;;;;;;5031958;28;20196;-63
2023/09/03 07:07:52;;;;;;;42.03;32.70;;;18.90;99.90;;;;;;5031197;28;20269;-63
2023/09/03 07:10:17;;;;;;;40.07;30.97;;;18.90;99.90;;;;;;5031691;28;20166;-63
2023/09/03 07:12:43;;;;;;;38.90;31.47;;;19.00;99.90;;;;;;5031299;28;20178;-62
2023/09/03 07:15:09;;;;;;;39.63;32.40;;;18.90;99.90;;;;;;5031331;28;20179;-63
2023/09/03 07:17:35;;;;;;;43.30;35.17;;;18.90;99.90;;;;;;5031776;28;20428;-64
2023/09/03 07:20:00;;;;;;;41.73;31.77;;;18.80;99.90;;;;;;5034853;28;20190;-63
2023/09/03 07:22:26;;;;;;;38.27;30.97;;;18.80;99.90;;;;;;5035102;28;20166;-63
2023/09/03 07:24:52;;;;;;;322.03;244.70;;;18.80;99.90;;;;;;5034995;28;20213;-64
2023/09/03 07:27:18;;;;;;;299.70;213.43;;;18.80;99.90;;;;;;5035521;28;20536;-63
2023/09/03 07:29:44;;;;;;;48.80;38.33;;;18.90;99.90;;;;;;5034338;28;20462;-62
2023/09/03 07:32:10;;;;;;;38.33;30.80;;;19.00;99.90;;;;;;5034427;28;20174;-63
2023/09/03 07:34:35;;;;;;;37.87;30.90;;;19.00;99.90;;;;;;5035299;28;20174;-63
2023/09/03 07:37:01;;;;;;;36.10;29.17;;;19.00;99.90;;;;;;5035263;28;20181;-64
2023/09/03 07:39:27;;;;;;;38.10;30.13;;;19.10;99.90;;;;;;5035534;28;20171;-63
2023/09/03 07:41:56;;;;;;;38.43;30.27;;;19.10;99.90;;;;;;5035013;28;20213;-63
2023/09/03 07:44:23;;;;;;;40.13;31.83;;;19.00;99.90;;;;;;5035307;28;20924;-63
2023/09/03 07:46:49;;;;;;;40.60;31.73;;;19.10;99.90;;;;;;5034745;28;20424;-63
2023/09/03 07:49:15;;;;;;;40.10;32.40;;;19.00;99.90;;;;;;5035330;28;20425;-63
2023/09/03 07:51:41;;;;;;;41.43;32.20;;;19.00;99.90;;;;;;5035596;28;20212;-63
2023/09/03 07:54:07;;;;;;;43.43;32.77;;;19.00;99.90;;;;;;5034912;28;20402;-63
2023/09/03 07:56:32;;;;;;;45.43;32.13;;;19.00;99.90;;;;;;5035247;28;20887;-63
2023/09/03 07:58:58;;;;;;;40.00;31.50;;;18.90;99.90;;;;;;5034754;28;20167;-63
2023/09/03 08:01:24;;;;;;;40.03;32.60;;;19.00;99.90;;;;;;5035312;28;20294;-63
2023/09/03 08:03:50;;;;;;;39.10;32.17;;;19.00;99.90;;;;;;5034448;28;20317;-63
2023/09/03 08:06:16;;;;;;;40.57;33.40;;;18.90;99.90;;;;;;5035280;28;20492;-63
2023/09/03 08:08:43;;;;;;;41.23;32.83;;;18.90;99.90;;;;;;5035017;28;20212;-63
2023/09/03 08:11:09;;;;;;;42.47;32.60;;;18.80;99.90;;;;;;5034209;28;20487;-63
2023/09/03 08:13:35;;;;;;;40.37;32.43;;;18.80;99.90;;;;;;5030857;28;20428;-62
2023/09/03 08:16:01;;;;;;;37.83;30.70;;;18.80;99.90;;;;;;5029568;28;20170;-63
2023/09/03 08:18:26;;;;;;;39.13;32.10;;;18.80;99.90;;;;;;5033680;28;20417;-63
2023/09/03 08:20:53;;;;;;;36.80;31.60;;;18.80;99.90;;;;;;5034257;28;20182;-62
2023/09/03 08:23:19;;;;;;;45.13;33.10;;;18.90;99.90;;;;;;5033976;28;20197;-63
2023/09/03 08:25:45;;;;;;;38.73;31.60;;;19.00;99.90;;;;;;5034713;28;20421;-63
2023/09/03 08:28:11;;;;;;;38.50;32.50;;;19.00;99.90;;;;;;5033429;28;20619;-62
2023/09/03 08:30:37;;;;;;;37.87;31.87;;;19.20;99.90;;;;;;5034480;28;20474;-62
2023/09/03 08:33:04;;;;;;;39.20;32.83;;;19.20;99.90;;;;;;5033114;28;20811;-63
2023/09/03 08:35:29;;;;;;;40.47;31.60;;;19.30;99.90;;;;;;5034919;28;20446;-61
2023/09/03 08:37:55;;;;;;;37.50;31.90;;;19.40;99.90;;;;;;5033796;28;20893;-63
2023/09/03 08:40:21;;;;;;;39.90;33.47;;;19.50;99.90;;;;;;5034150;28;20167;-62
2023/09/03 08:42:48;;;;;;;34.47;29.63;;;19.70;99.90;;;;;;5033781;28;20285;-65
2023/09/03 08:45:17;;;;;;;132.70;101.17;;;19.80;99.90;;;;;;5033527;28;20417;-63
2023/09/03 08:47:44;;;;;;;47.03;37.87;;;19.90;99.90;;;;;;5033925;28;20413;-62
2023/09/03 08:50:12;;;;;;;34.40;30.70;;;19.90;99.90;;;;;;5044001;28;20417;-62
2023/09/03 08:52:38;;;;;;;34.17;29.03;;;20.00;99.90;;;;;;5029534;28;20471;-62
2023/09/03 08:55:05;;;;;;;33.90;29.60;;;20.00;99.90;;;;;;5028828;28;20416;-63
2023/09/03 08:57:34;;;;;;;33.37;29.77;;;20.10;99.90;;;;;;5030023;28;20452;-62
2023/09/03 09:00:01;;;;;;;32.90;29.27;;;20.20;99.90;;;;;;5028912;28;20782;-63
2023/09/03 09:02:27;;;;;;;32.30;28.80;;;20.30;99.90;;;;;;5028870;28;20459;-62
2023/09/03 09:05:13;;;;;;;35.33;30.10;;;20.50;99.90;;;;;;5028582;28;20464;-62
2023/09/03 09:07:39;;;;;;;33.20;29.80;;;20.60;99.90;;;;;;5029177;28;20424;-61
2023/09/03 09:10:09;;;;;;;32.70;29.20;;;20.70;99.90;;;;;;5029633;28;20964;-62
2023/09/03 09:12:41;;;;;;;33.67;30.10;;;20.80;99.90;;;;;;5029407;28;20417;-61
2023/09/03 09:15:07;;;;;;;33.60;30.13;;;20.90;99.90;;;;;;5028403;28;20917;-61
2023/09/03 09:17:41;;;;;;;36.80;32.97;;;21.10;99.90;;;;;;5029640;28;20741;-62
2023/09/03 09:20:08;;;;;;;37.90;33.80;;;21.20;99.90;;;;;;5029078;28;20409;-62
2023/09/03 09:22:47;;;;;;;35.80;32.13;;;21.40;99.90;;;;;;5029692;28;20413;-61
2023/09/03 09:25:24;;;;;;;37.73;33.63;;;21.50;99.90;;;;;;5028907;28;20425;-61
2023/09/03 09:27:52;;;;;;;35.03;31.53;;;21.60;99.90;;;;;;5029375;28;20507;-61
2023/09/03 09:30:19;;;;;;;34.13;30.50;;;21.70;99.90;;;;;;5029727;28;20447;-61
2023/09/03 09:32:46;;;;;;;35.17;31.67;;;21.90;99.90;;;;;;5030002;28;20807;-62
2023/09/03 09:35:25;;;;;;;37.13;33.37;;;22.00;99.90;;;;;;5029417;28;20413;-62
2023/09/03 09:37:51;;;;;;;33.50;29.73;;;22.10;99.90;;;;;;5029391;28;20392;-62
2023/09/03 09:40:32;;;;;;;33.60;30.10;;;22.30;99.90;;;;;;5028800;28;20413;-61
2023/09/03 09:43:04;;;;;;;31.60;28.43;;;22.40;99.90;;;;;;5028585;28;20635;-62
2023/09/03 09:45:30;;;;;;;32.07;29.07;;;22.60;99.90;;;;;;5024794;28;20761;-62
2023/09/03 09:48:03;;;;;;;23.53;21.23;;;22.80;99.90;;;;;;5028247;28;20423;-63
2023/09/03 09:50:48;;;;;;;26.73;24.33;;;23.00;99.90;;;;;;5028667;28;20421;-63
2023/09/03 09:53:25;;;;;;;25.60;23.27;;;23.20;99.90;;;;;;5028265;28;20417;-64
2023/09/03 09:56:02;;;;;;;24.50;21.93;;;23.30;99.90;;;;;;5028263;28;20421;-62
2023/09/03 09:58:36;;;;;;;24.50;22.20;;;23.50;99.90;;;;;;5029488;28;20810;-64
2023/09/03 10:01:01;;;;;;;21.63;19.77;;;23.60;99.90;;;;;;5028915;28;20459;-64
2023/09/03 10:03:56;;;;;;;21.17;19.40;;;23.70;99.90;;;;;;5026473;28;20489;-64
2023/09/03 10:06:24;;;;;;;18.77;17.33;;;23.90;99.90;;;;;;5015369;28;20196;-63
2023/09/03 10:08:51;;;;;;;17.07;15.77;;;24.00;99.90;;;;;;5028639;28;20491;-63
2023/09/03 10:11:18;;;;;;;18.30;16.80;;;24.20;99.90;;;;;;5030906;28;20412;-63
2023/09/03 10:13:44;;;;;;;17.60;16.20;;;24.30;99.90;;;;;;5028959;28;20933;-64
2023/09/03 10:16:11;;;;;;;19.67;17.97;;;24.30;99.90;;;;;;5044144;28;20798;-64
2023/09/03 10:18:47;;;;;;;237.13;196.30;;;24.30;99.90;;;;;;5029037;28;20417;-64
2023/09/03 10:21:19;;;;;;;47.20;42.33;;;24.40;99.90;;;;;;5043946;28;20440;-64
2023/09/03 10:23:49;;;;;;;59.37;53.57;;;24.50;99.90;;;;;;5029285;28;20466;-65
2023/09/03 10:26:41;;;;;;;18.67;17.07;;;24.50;99.90;;;;;;5028484;28;20409;-64
2023/09/03 10:29:10;;;;;;;14.60;13.40;;;24.50;99.90;;;;;;5027189;28;20496;-64
2023/09/03 10:31:38;;;;;;;17.27;15.67;;;24.60;99.90;;;;;;5027036;28;20425;-63
2023/09/03 10:34:12;;;;;;;12.97;11.97;;;24.70;99.90;;;;;;5025709;28;20806;-65
2023/09/03 10:36:58;;;;;;;11.93;11.07;;;24.60;99.50;;;;;;5028415;28;20408;-63
2023/09/03 10:39:24;;;;;;;12.27;11.37;;;24.60;99.90;;;;;;5010958;28;20921;-63
2023/09/03 10:42:18;;;;;;;11.83;11.00;;;24.70;99.90;;;;;;5027459;28;20440;-63
2023/09/03 10:44:51;;;;;;;14.23;13.00;;;24.80;99.90;;;;;;5027307;28;20249;-63
2023/09/03 10:47:19;;;;;;;11.60;10.70;;;25.00;99.90;;;;;;5028611;28;20482;-63
2023/09/03 10:49:49;;;;;;;9.20;8.53;;;25.20;99.90;;;;;;5028286;28;20777;-63
2023/09/03 10:52:28;;;;;;;6.10;5.70;;;25.40;99.90;;;;;;5029710;28;20888;-63
2023/09/03 10:55:13;;;;;;;8.30;7.80;;;25.40;92.10;;;;;;5027123;28;20523;-64
2023/09/03 10:57:39;;;;;;;9.43;8.83;;;25.50;95.60;;;;;;5031555;28;20437;-64
2023/09/03 11:00:10;;;;;;;10.63;9.80;;;25.70;97.90;;;;;;5031779;28;20417;-63
2023/09/03 11:02:37;;;;;;;9.13;8.33;;;25.90;97.20;;;;;;5032784;28;20412;-63
2023/09/03 11:05:19;;;;;;;9.60;8.93;;;26.00;97.00;;;;;;5032344;28;20449;-63
2023/09/03 11:07:47;;;;;;;10.20;9.40;;;26.10;95.60;;;;;;5032804;28;20415;-64
2023/09/03 11:10:25;;;;;;;7.37;6.60;;;26.20;96.00;;;;;;5032148;28;20396;-64
2023/09/03 11:12:52;;;;;;;7.77;7.30;;;26.10;93.00;;;;;;5031573;28;20817;-64
2023/09/03 11:15:19;;;;;;;7.00;6.53;;;26.20;93.20;;;;;;5031467;28;20491;-64
2023/09/03 11:17:53;;;;;;;7.07;6.67;;;26.20;91.80;;;;;;5031364;28;20425;-63
2023/09/03 11:20:35;;;;;;;7.20;6.70;;;26.30;91.30;;;;;;5031757;28;20745;-64
2023/09/03 11:23:04;;;;;;;6.50;6.10;;;26.30;91.60;;;;;;5031044;28;20465;-63
2023/09/03 11:25:35;;;;;;;7.53;6.93;;;26.30;90.90;;;;;;5031103;28;20832;-63
2023/09/03 11:28:01;;;;;;;237.70;193.23;;;26.30;92.80;;;;;;5035230;28;20782;-63
2023/09/03 11:30:28;;;;;;;88.27;74.17;;;26.30;88.10;;;;;;5034946;28;20908;-64
2023/09/03 11:32:54;;;;;;;59.03;52.73;;;26.20;87.60;;;;;;5034208;28;20428;-63
2023/09/03 11:35:21;;;;;;;12.33;11.33;;;26.20;88.50;;;;;;5030536;28;20443;-63
2023/09/03 11:37:49;;;;;;;9.37;8.80;;;26.30;92.60;;;;;;5031120;28;20432;-64
2023/09/03 11:40:16;;;;;;;9.40;8.90;;;26.40;94.10;;;;;;5032506;28;20487;-64
2023/09/03 11:42:48;;;;;;;9.17;8.67;;;26.50;92.70;;;;;;5033573;28;20475;-64
2023/09/03 11:45:14;;;;;;;8.57;7.83;;;26.50;91.60;;;;;;5034014;28;20453;-64
2023/09/03 11:47:51;;;;;;;9.60;9.00;;;26.50;90.80;;;;;;5035236;28;20514;-64
2023/09/03 11:50:17;;;;;;;8.60;8.10;;;26.50;91.70;;;;;;5033615;28;20257;-63
2023/09/03 11:52:58;;;;;;;10.03;9.23;;;26.50;93.50;;;;;;5034314;28;20471;-64
2023/09/03 11:55:28;;;;;;;10.13;9.40;;;26.50;92.70;;;;;;5034384;28;20908;-64
2023/09/03 11:57:58;;;;;;;8.70;8.20;;;26.50;94.00;;;;;;5033790;28;20439;-63
2023/09/03 12:00:24;;;;;;;7.70;7.20;;;26.50;91.90;;;;;;5036206;28;20412;-63
2023/09/03 12:02:51;;;;;;;7.30;6.90;;;26.50;90.90;;;;;;5034468;28;20471;-64
2023/09/03 12:05:17;;;;;;;6.40;5.97;;;26.50;92.10;;;;;;5033004;28;20461;-64
2023/09/03 12:07:43;;;;;;;7.13;6.70;;;26.50;89.90;;;;;;5033853;28;20796;-64
2023/09/03 12:10:09;;;;;;;6.47;5.97;;;26.40;89.50;;;;;;5033673;28;20491;-63
2023/09/03 12:12:41;;;;;;;6.87;6.43;;;26.20;85.50;;;;;;5034885;28;20676;-64
2023/09/03 12:15:25;;;;;;;6.00;5.60;;;25.60;79.20;;;;;;5032276;28;20449;-64
2023/09/03 12:17:52;;;;;;;8.63;8.03;;;25.50;84.60;;;;;;5035761;28;20425;-61
2023/09/03 12:20:37;;;;;;;10.87;10.13;;;25.60;92.00;;;;;;5033160;28;20428;-61
2023/09/03 12:23:12;;;;;;;9.73;9.13;;;25.60;93.40;;;;;;5032931;28;20453;-61
2023/09/03 12:25:39;;;;;;;8.67;8.17;;;25.60;95.30;;;;;;5034583;28;20424;-62
2023/09/03 12:28:06;;;;;;;7.60;6.90;;;25.70;94.50;;;;;;5029725;28;20421;-61
2023/09/03 12:30:58;;;;;;;6.50;6.10;;;25.70;93.50;;;;;;5027264;28;20491;-61
2023/09/03 12:33:42;;;;;;;8.23;7.63;;;25.60;90.30;;;;;;5025342;28;20425;-63
2023/09/03 12:36:08;;;;;;;8.67;8.07;;;25.60;92.30;;;;;;5029195;28;20423;-66